Dresden Airport EDDC

Flugplatz Daten

Name: Dresden Airport

Ident: EDDC

Lat: 51,13280106

Long: 13,76720047

Platzhöhe: 755 ft

IataCode: DRS

City: Dresden

Homepage: http://www.dresden-airport.de/en/index.html

Metar

2021/10/25 23:50
EDDC 252350Z 17004KT CAVOK 06/03 Q1020

Taf

2021/10/25 00:27
TAF EDDC 252300Z 2600/2624 17007KT 9999 FEW035
BECMG 2608/2610 23006KT
Gewünschte Webcam nicht vorhanden? Dann fügen Sie eine hinzu. Sie wird dann so schnell wie möglich freigeschaltet
Url: Title: